»·PEaware :: SWA1716 KSLC-KLAX

SWA1716 :: KSLC-KLAX

FLIGHT INFORMATION

Flight Status: Arrived
Operator:
Southwest Airlines
More flights by this operator :: More flights under this callsign
Pilot: Merv A. (1555)
Aircraft: BOEING 737-700
(B737)
More flights by this aircraft type
Origin: KSLC Salt Lake City Intl
United States
Destination: KLAX Los Angeles Intl
United States
More flights between these airports :: More routes between these airports
Route: + / DTA100016 EHK LAKRR Q88 HAKMN ANJLL2
File this flight plan on PilotEdge
Remarks: rmk / custom time
Altitude:
(Current/Filed)
40,000ft
Speed:
(Current/Filed)
450kts
Departed: 09-Jan-18 06:53 PM
Arrived: 09-Jan-18 08:28 PM
Distance/Time
Traveled:
512nm/1:35
Distance/Time
To Go:
Arrived

Flight Plot

Page will automatically refresh every two minutes.

Flight plan parsing failed; only flown route is shown


Map Options




Map Legend


Flown Route
Filed Route
Departure Airport
Arrival Airport
Navaid (VOR, NDB)
Fix

Horizontal Profiles

Position Reports

Time Latitude Longitude Heading Altitude Ground
Speed
09-Jan-18 18:26 40.789036 -111.979138 136 4234ft 0kts
09-Jan-18 18:27 40.789036 -111.979138 136 4234ft 0kts
09-Jan-18 18:28 40.789036 -111.979138 136 4234ft 0kts
09-Jan-18 18:29 40.789036 -111.979138 136 4234ft 0kts
09-Jan-18 18:30 40.789036 -111.979138 136 4234ft 0kts
09-Jan-18 18:31 40.789036 -111.979138 136 4234ft 0kts
09-Jan-18 18:32 40.789036 -111.979138 136 4234ft 0kts
09-Jan-18 18:33 40.789036 -111.979138 136 4234ft 0kts
09-Jan-18 18:34 40.789036 -111.979138 136 4234ft 0kts
09-Jan-18 18:35 40.789036 -111.979138 136 4234ft 0kts
09-Jan-18 18:36 40.789036 -111.979138 136 4234ft 0kts
09-Jan-18 18:37 40.789036 -111.979138 136 4234ft 0kts
09-Jan-18 18:38 40.789036 -111.979138 136 4234ft 0kts
09-Jan-18 18:39 40.789036 -111.979138 136 4234ft 0kts
09-Jan-18 18:40 40.789036 -111.979138 136 4234ft 0kts
09-Jan-18 18:41 40.789036 -111.979138 136 4234ft 0kts
09-Jan-18 18:42 40.789036 -111.979138 136 4234ft 0kts
09-Jan-18 18:43 40.789036 -111.979138 136 4234ft 0kts
09-Jan-18 18:44 40.789036 -111.979138 136 4234ft 0kts
09-Jan-18 18:45 40.789036 -111.979138 136 4234ft 0kts
09-Jan-18 18:46 40.789036 -111.979138 136 4234ft 0kts
09-Jan-18 18:47 40.789123 -111.979247 135 4234ft 2kts
09-Jan-18 18:48 40.789541 -111.979893 115 4234ft 2kts
09-Jan-18 18:49 40.789593 -111.980086 91 4234ft 0kts
09-Jan-18 18:50 40.789593 -111.980086 91 4234ft 0kts
09-Jan-18 18:51 40.789594 -111.980006 86 4234ft 3kts
09-Jan-18 18:52 40.790075 -111.977198 10 4234ft 10kts
09-Jan-18 18:53 40.794977 -111.977714 355 4234ft 23kts
09-Jan-18 18:54 40.801497 -111.978468 354 4234ft 21kts
09-Jan-18 18:55 40.806536 -111.979056 354 4234ft 10kts
09-Jan-18 18:56 40.807521 -111.978432 83 4234ft 0kts
09-Jan-18 18:57 40.807521 -111.978428 83 4234ft 0kts
09-Jan-18 18:58 40.807212 -111.976866 169 4234ft 5kts
09-Jan-18 18:59 40.799021 -111.975882 174 4235ft 115kts
09-Jan-18 19:00 40.756147 -111.972141 176 6062ft 168kts
09-Jan-18 19:01 40.706775 -111.968759 176 7746ft 202kts
09-Jan-18 19:02 40.640618 -111.964240 176 8936ft 275kts
09-Jan-18 19:03 40.563565 -111.958825 181 11949ft 294kts
09-Jan-18 19:04 40.474609 -111.952894 181 14487ft 324kts
09-Jan-18 19:05 40.390191 -111.947095 181 19020ft 290kts
09-Jan-18 19:06 40.308448 -111.941445 181 21823ft 301kts
09-Jan-18 19:07 40.222924 -111.945944 190 23846ft 326kts
09-Jan-18 19:08 40.124382 -111.961300 189 24629ft 383kts
09-Jan-18 19:09 40.016735 -111.977058 189 26651ft 393kts
09-Jan-18 19:10 39.906253 -111.993187 189 28478ft 401kts
09-Jan-18 19:11 39.794583 -112.009453 189 30066ft 407kts
09-Jan-18 19:12 39.681508 -112.025954 189 31631ft 408kts
09-Jan-18 19:13 39.568576 -112.042302 190 31841ft 406kts
09-Jan-18 19:14 39.456642 -112.058432 189 31838ft 404kts
09-Jan-18 19:15 39.344453 -112.074409 190 33383ft 396kts
09-Jan-18 19:16 39.236230 -112.089728 190 34758ft 392kts
09-Jan-18 19:17 39.132361 -112.125661 210 35764ft 386kts
09-Jan-18 19:18 39.038690 -112.192465 210 36768ft 386kts
09-Jan-18 19:19 38.944401 -112.259526 210 37627ft 387kts
09-Jan-18 19:20 38.849999 -112.326435 210 38377ft 389kts
09-Jan-18 19:21 38.755112 -112.393839 210 39113ft 389kts
09-Jan-18 19:22 38.660101 -112.461084 210 39698ft 392kts
09-Jan-18 19:23 38.564243 -112.528639 210 39828ft 390kts
09-Jan-18 19:24 38.469466 -112.595205 210 39825ft 390kts
09-Jan-18 19:25 38.373987 -112.662042 209 39821ft 391kts
09-Jan-18 19:26 38.278573 -112.728636 209 39821ft 391kts
09-Jan-18 19:27 38.182760 -112.795296 209 39822ft 391kts
09-Jan-18 19:28 38.086966 -112.861737 209 39825ft 392kts
09-Jan-18 19:29 37.991070 -112.928255 209 39825ft 394kts
09-Jan-18 19:30 37.895036 -112.994367 209 39819ft 392kts
09-Jan-18 19:31 37.799224 -113.060068 209 39811ft 392kts
09-Jan-18 19:32 37.704516 -113.128644 210 39809ft 393kts
09-Jan-18 19:33 37.609631 -113.197971 210 39811ft 393kts
09-Jan-18 19:34 37.514696 -113.267058 210 39817ft 393kts
09-Jan-18 19:35 37.420085 -113.336033 210 39826ft 393kts
09-Jan-18 19:36 37.325135 -113.405001 210 39834ft 393kts
09-Jan-18 19:37 37.230700 -113.473310 210 39836ft 393kts
09-Jan-18 19:38 37.135512 -113.541926 210 39839ft 394kts
09-Jan-18 19:39 37.040440 -113.610258 210 39840ft 393kts
09-Jan-18 19:40 36.945768 -113.678090 210 39840ft 392kts
09-Jan-18 19:41 36.851174 -113.745678 210 39839ft 391kts
09-Jan-18 19:42 36.756795 -113.812931 210 39839ft 390kts
09-Jan-18 19:43 36.662121 -113.880197 210 39839ft 391kts
09-Jan-18 19:44 36.567645 -113.947130 210 39834ft 391kts
09-Jan-18 19:45 36.472968 -114.014017 210 39830ft 392kts
09-Jan-18 19:46 36.377754 -114.081093 210 39829ft 393kts
09-Jan-18 19:47 36.282532 -114.148176 210 39828ft 392kts
09-Jan-18 19:48 36.187966 -114.214354 210 39826ft 392kts
09-Jan-18 19:49 36.094023 -114.284016 219 39826ft 391kts
09-Jan-18 19:50 36.017912 -114.380240 226 39825ft 393kts
09-Jan-18 19:51 35.944983 -114.480536 226 39824ft 392kts
09-Jan-18 19:52 35.872112 -114.581048 227 39823ft 393kts
09-Jan-18 19:53 35.798847 -114.682006 226 39821ft 395kts
09-Jan-18 19:54 35.725247 -114.782775 226 39823ft 397kts
09-Jan-18 19:55 35.651222 -114.884026 227 39820ft 399kts
09-Jan-18 19:56 35.576718 -114.985888 227 39817ft 400kts
09-Jan-18 19:57 35.501704 -115.087955 226 39819ft 402kts
09-Jan-18 19:58 35.424907 -115.188034 226 39819ft 404kts
09-Jan-18 19:59 35.347491 -115.288707 226 39818ft 405kts
09-Jan-18 20:00 35.270730 -115.389024 226 39822ft 405kts
09-Jan-18 20:01 35.193067 -115.489552 226 39831ft 405kts
09-Jan-18 20:02 35.115573 -115.589524 226 39837ft 405kts
09-Jan-18 20:03 35.037866 -115.689143 225 39841ft 404kts
09-Jan-18 20:04 34.959902 -115.788750 225 39846ft 405kts
09-Jan-18 20:05 34.881872 -115.888256 226 39851ft 405kts
09-Jan-18 20:06 34.804422 -115.987321 225 39856ft 404kts
09-Jan-18 20:07 34.726046 -116.086936 226 39867ft 413kts
09-Jan-18 20:08 34.646750 -116.187410 226 39576ft 413kts
09-Jan-18 20:09 34.568373 -116.286747 225 37594ft 406kts
09-Jan-18 20:10 34.489450 -116.385984 225 34879ft 407kts
09-Jan-18 20:11 34.415171 -116.488915 235 31924ft 411kts
09-Jan-18 20:12 34.362354 -116.609549 240 29684ft 397kts
09-Jan-18 20:13 34.321860 -116.708514 241 27767ft 390kts
09-Jan-18 20:14 34.267274 -116.844261 241 25241ft 379kts
09-Jan-18 20:15 34.221576 -116.957115 241 23114ft 367kts
09-Jan-18 20:16 34.186927 -117.072055 250 21231ft 361kts
09-Jan-18 20:17 34.156290 -117.185405 250 19244ft 349kts
09-Jan-18 20:18 34.130587 -117.278784 250 17509ft 350kts
09-Jan-18 20:19 34.100900 -117.387184 251 15949ft 325kts
09-Jan-18 20:20 34.071165 -117.506415 252 13464ft 312kts
09-Jan-18 20:21 34.050508 -117.587519 252 11959ft 293kts
09-Jan-18 20:22 34.026755 -117.680063 251 10227ft 284kts
09-Jan-18 20:23 34.015197 -117.768292 261 9055ft 264kts
09-Jan-18 20:24 34.006751 -117.855702 260 7911ft 259kts
09-Jan-18 20:25 33.998758 -117.937244 260 6704ft 245kts
09-Jan-18 20:26 33.991508 -118.015299 260 5574ft 236kts
09-Jan-18 20:27 33.983801 -118.092316 260 4374ft 223kts
09-Jan-18 20:28 33.976941 -118.159473 260 3490ft 194kts
09-Jan-18 20:29 33.970687 -118.220541 261 2830ft 179kts
09-Jan-18 20:30 33.964666 -118.279326 261 2111ft 172kts
09-Jan-18 20:31 33.959412 -118.330627 262 1298ft 142kts
09-Jan-18 20:32 33.954546 -118.378125 263 537ft 143kts
09-Jan-18 20:33 33.950478 -118.418107 264 134ft 45kts
09-Jan-18 20:34 33.948752 -118.426564 230 134ft 4kts
09-Jan-18 20:35 33.948687 -118.426660 230 134ft 0kts
09-Jan-18 20:36 33.947932 -118.427432 207 134ft 9kts
09-Jan-18 20:37 33.946430 -118.426195 81 134ft 10kts
09-Jan-18 20:38 33.946986 -118.420854 82 134ft 16kts
09-Jan-18 20:39 33.947528 -118.415515 82 134ft 17kts
09-Jan-18 20:40 33.948183 -118.410469 82 134ft 14kts
09-Jan-18 20:41 33.948727 -118.405161 82 134ft 17kts
09-Jan-18 20:42 33.947661 -118.402739 172 134ft 8kts
09-Jan-18 20:43 33.947043 -118.401919 92 134ft 0kts
09-Jan-18 20:44 33.947043 -118.401919 92 134ft 0kts
09-Jan-18 20:45 33.947043 -118.401919 92 134ft 0kts
09-Jan-18 20:46 33.947043 -118.401919 92 134ft 0kts

Navigation Log

Ident Type
Flight plan parsing failed, navigation log unavailable